sensor_id;sensor_type;location;lat;lon;timestamp;temperature;humidity
20481;DHT22;10399;50.754;3.366;2022-11-20T00:01:15;7.90;99.90
20481;DHT22;10399;50.754;3.366;2022-11-20T00:03:42;7.90;99.90
20481;DHT22;10399;50.754;3.366;2022-11-20T00:06:12;7.80;99.90
20481;DHT22;10399;50.754;3.366;2022-11-20T00:08:40;7.90;99.90
20481;DHT22;10399;50.754;3.366;2022-11-20T00:11:11;7.90;99.90
20481;DHT22;10399;50.754;3.366;2022-11-20T00:13:43;8.00;99.90
20481;DHT22;10399;50.754;3.366;2022-11-20T00:16:11;8.00;99.90
20481;DHT22;10399;50.754;3.366;2022-11-20T00:18:39;7.80;99.90
20481;DHT22;10399;50.754;3.366;2022-11-20T00:21:10;7.80;99.90
20481;DHT22;10399;50.754;3.366;2022-11-20T00:23:37;7.80;99.90
20481;DHT22;10399;50.754;3.366;2022-11-20T00:26:10;7.70;99.90
20481;DHT22;10399;50.754;3.366;2022-11-20T00:28:37;7.80;99.90
20481;DHT22;10399;50.754;3.366;2022-11-20T00:31:06;7.90;99.90
20481;DHT22;10399;50.754;3.366;2022-11-20T00:33:34;7.90;99.90
20481;DHT22;10399;50.754;3.366;2022-11-20T00:36:06;8.20;99.90
20481;DHT22;10399;50.754;3.366;2022-11-20T00:38:34;8.20;99.90
20481;DHT22;10399;50.754;3.366;2022-11-20T00:41:06;8.00;99.90
20481;DHT22;10399;50.754;3.366;2022-11-20T00:43:34;8.20;99.90
20481;DHT22;10399;50.754;3.366;2022-11-20T00:46:03;8.30;99.90
20481;DHT22;10399;50.754;3.366;2022-11-20T00:48:31;8.30;99.90
20481;DHT22;10399;50.754;3.366;2022-11-20T00:50:59;8.30;99.90
20481;DHT22;10399;50.754;3.366;2022-11-20T00:53:26;8.00;99.90
20481;DHT22;10399;50.754;3.366;2022-11-20T00:56:02;8.00;99.90
20481;DHT22;10399;50.754;3.366;2022-11-20T00:58:34;7.90;99.90
20481;DHT22;10399;50.754;3.366;2022-11-20T01:01:16;8.00;99.90
20481;DHT22;10399;50.754;3.366;2022-11-20T01:03:45;8.20;99.90
20481;DHT22;10399;50.754;3.366;2022-11-20T01:06:23;8.20;99.90
20481;DHT22;10399;50.754;3.366;2022-11-20T01:08:52;8.00;99.90
20481;DHT22;10399;50.754;3.366;2022-11-20T01:11:22;8.10;99.90
20481;DHT22;10399;50.754;3.366;2022-11-20T01:13:50;8.10;99.90
20481;DHT22;10399;50.754;3.366;2022-11-20T01:18:48;8.10;99.90
20481;DHT22;10399;50.754;3.366;2022-11-20T01:21:20;8.00;99.90
20481;DHT22;10399;50.754;3.366;2022-11-20T01:23:48;8.00;99.90
20481;DHT22;10399;50.754;3.366;2022-11-20T01:26:19;8.10;99.90
20481;DHT22;10399;50.754;3.366;2022-11-20T01:28:47;8.00;99.90
20481;DHT22;10399;50.754;3.366;2022-11-20T01:31:32;7.80;99.90
20481;DHT22;10399;50.754;3.366;2022-11-20T01:34:05;7.70;99.90
20481;DHT22;10399;50.754;3.366;2022-11-20T01:36:33;7.60;99.90
20481;DHT22;10399;50.754;3.366;2022-11-20T01:39:05;7.90;99.90
20481;DHT22;10399;50.754;3.366;2022-11-20T01:41:33;8.10;99.90
20481;DHT22;10399;50.754;3.366;2022-11-20T01:44:23;8.10;99.90
20481;DHT22;10399;50.754;3.366;2022-11-20T01:47:09;8.10;99.90
20481;DHT22;10399;50.754;3.366;2022-11-20T01:49:59;8.00;99.90
20481;DHT22;10399;50.754;3.366;2022-11-20T01:55:13;8.00;99.90
20481;DHT22;10399;50.754;3.366;2022-11-20T01:57:44;8.00;99.90
20481;DHT22;10399;50.754;3.366;2022-11-20T02:00:15;7.90;99.90
20481;DHT22;10399;50.754;3.366;2022-11-20T02:02:51;7.90;99.90
20481;DHT22;10399;50.754;3.366;2022-11-20T02:07:49;8.10;99.90
20481;DHT22;10399;50.754;3.366;2022-11-20T02:10:17;7.90;99.90
20481;DHT22;10399;50.754;3.366;2022-11-20T02:12:44;8.00;99.90
20481;DHT22;10399;50.754;3.366;2022-11-20T02:15:30;8.00;99.90
20481;DHT22;10399;50.754;3.366;2022-11-20T02:17:58;7.90;99.90
20481;DHT22;10399;50.754;3.366;2022-11-20T02:20:25;7.90;99.90
20481;DHT22;10399;50.754;3.366;2022-11-20T02:23:02;7.80;99.90
20481;DHT22;10399;50.754;3.366;2022-11-20T02:25:32;7.80;99.90
20481;DHT22;10399;50.754;3.366;2022-11-20T02:28:00;7.80;99.90
20481;DHT22;10399;50.754;3.366;2022-11-20T02:30:27;7.90;99.90
20481;DHT22;10399;50.754;3.366;2022-11-20T02:32:54;7.90;99.90
20481;DHT22;10399;50.754;3.366;2022-11-20T02:37:51;7.80;99.90
20481;DHT22;10399;50.754;3.366;2022-11-20T02:40:19;7.80;99.90
20481;DHT22;10399;50.754;3.366;2022-11-20T02:42:47;8.00;99.90
20481;DHT22;10399;50.754;3.366;2022-11-20T02:45:13;7.80;99.90
20481;DHT22;10399;50.754;3.366;2022-11-20T02:47:40;7.80;99.90
20481;DHT22;10399;50.754;3.366;2022-11-20T02:50:07;7.70;99.90
20481;DHT22;10399;50.754;3.366;2022-11-20T02:52:35;7.90;99.90
20481;DHT22;10399;50.754;3.366;2022-11-20T02:55:03;7.80;99.90
20481;DHT22;10399;50.754;3.366;2022-11-20T02:57:31;8.00;99.90
20481;DHT22;10399;50.754;3.366;2022-11-20T02:59:57;8.10;99.90
20481;DHT22;10399;50.754;3.366;2022-11-20T03:02:24;8.10;99.90
20481;DHT22;10399;50.754;3.366;2022-11-20T03:04:51;8.10;99.90
20481;DHT22;10399;50.754;3.366;2022-11-20T03:07:18;8.00;99.90
20481;DHT22;10399;50.754;3.366;2022-11-20T03:09:45;7.90;99.90
20481;DHT22;10399;50.754;3.366;2022-11-20T03:12:12;8.00;99.90
20481;DHT22;10399;50.754;3.366;2022-11-20T03:14:39;8.00;99.90
20481;DHT22;10399;50.754;3.366;2022-11-20T03:17:06;8.00;99.90
20481;DHT22;10399;50.754;3.366;2022-11-20T03:19:33;7.80;99.90
20481;DHT22;10399;50.754;3.366;2022-11-20T03:22:01;7.80;99.90
20481;DHT22;10399;50.754;3.366;2022-11-20T03:24:28;7.80;99.90
20481;DHT22;10399;50.754;3.366;2022-11-20T03:26:55;7.60;99.90
20481;DHT22;10399;50.754;3.366;2022-11-20T03:29:22;7.40;99.90
20481;DHT22;10399;50.754;3.366;2022-11-20T03:31:49;7.40;99.90
20481;DHT22;10399;50.754;3.366;2022-11-20T03:34:16;7.60;99.90
20481;DHT22;10399;50.754;3.366;2022-11-20T03:36:43;7.40;99.90
20481;DHT22;10399;50.754;3.366;2022-11-20T03:39:10;7.60;99.90
20481;DHT22;10399;50.754;3.366;2022-11-20T03:41:40;7.50;99.90
20481;DHT22;10399;50.754;3.366;2022-11-20T03:44:10;7.60;99.90
20481;DHT22;10399;50.754;3.366;2022-11-20T03:46:37;7.70;99.90
20481;DHT22;10399;50.754;3.366;2022-11-20T03:49:05;7.90;99.90
20481;DHT22;10399;50.754;3.366;2022-11-20T03:51:34;7.90;99.90
20481;DHT22;10399;50.754;3.366;2022-11-20T03:54:04;7.70;99.90
20481;DHT22;10399;50.754;3.366;2022-11-20T03:56:35;7.60;99.90
20481;DHT22;10399;50.754;3.366;2022-11-20T03:59:03;7.50;99.90
20481;DHT22;10399;50.754;3.366;2022-11-20T04:01:35;7.40;99.90
20481;DHT22;10399;50.754;3.366;2022-11-20T04:04:04;7.40;99.90
20481;DHT22;10399;50.754;3.366;2022-11-20T04:06:36;7.30;99.90
20481;DHT22;10399;50.754;3.366;2022-11-20T04:09:05;7.50;99.90
20481;DHT22;10399;50.754;3.366;2022-11-20T04:11:34;7.70;99.90
20481;DHT22;10399;50.754;3.366;2022-11-20T04:14:04;8.00;99.90
20481;DHT22;10399;50.754;3.366;2022-11-20T04:16:35;8.00;99.90
20481;DHT22;10399;50.754;3.366;2022-11-20T04:19:08;7.90;99.90
20481;DHT22;10399;50.754;3.366;2022-11-20T04:21:36;7.90;99.90
20481;DHT22;10399;50.754;3.366;2022-11-20T04:24:03;7.80;99.90
20481;DHT22;10399;50.754;3.366;2022-11-20T04:26:30;7.90;99.90
20481;DHT22;10399;50.754;3.366;2022-11-20T04:28:58;7.80;99.90
20481;DHT22;10399;50.754;3.366;2022-11-20T04:31:28;7.60;99.90
20481;DHT22;10399;50.754;3.366;2022-11-20T04:33:58;7.60;99.90
20481;DHT22;10399;50.754;3.366;2022-11-20T04:36:27;7.60;99.90
20481;DHT22;10399;50.754;3.366;2022-11-20T04:38:59;7.60;99.90
20481;DHT22;10399;50.754;3.366;2022-11-20T04:41:29;7.60;99.90
20481;DHT22;10399;50.754;3.366;2022-11-20T04:43:59;7.50;99.90
20481;DHT22;10399;50.754;3.366;2022-11-20T04:46:31;7.60;99.90
20481;DHT22;10399;50.754;3.366;2022-11-20T04:48:59;7.60;99.90
20481;DHT22;10399;50.754;3.366;2022-11-20T04:51:27;7.50;99.90
20481;DHT22;10399;50.754;3.366;2022-11-20T04:53:54;7.50;99.90
20481;DHT22;10399;50.754;3.366;2022-11-20T04:56:21;7.60;99.90
20481;DHT22;10399;50.754;3.366;2022-11-20T04:58:48;7.60;99.90
20481;DHT22;10399;50.754;3.366;2022-11-20T05:01:18;7.70;99.90
20481;DHT22;10399;50.754;3.366;2022-11-20T05:03:45;7.70;99.90
20481;DHT22;10399;50.754;3.366;2022-11-20T05:06:15;7.70;99.90
20481;DHT22;10399;50.754;3.366;2022-11-20T05:08:43;7.60;99.90
20481;DHT22;10399;50.754;3.366;2022-11-20T05:11:12;7.60;99.90
20481;DHT22;10399;50.754;3.366;2022-11-20T05:13:40;7.60;99.90
20481;DHT22;10399;50.754;3.366;2022-11-20T05:16:13;7.80;99.90
20481;DHT22;10399;50.754;3.366;2022-11-20T05:18:41;7.70;99.90
20481;DHT22;10399;50.754;3.366;2022-11-20T05:21:09;7.70;99.90
20481;DHT22;10399;50.754;3.366;2022-11-20T05:23:37;7.90;99.90
20481;DHT22;10399;50.754;3.366;2022-11-20T05:26:06;7.80;99.90
20481;DHT22;10399;50.754;3.366;2022-11-20T05:28:34;8.00;99.90
20481;DHT22;10399;50.754;3.366;2022-11-20T05:31:08;8.10;99.90
20481;DHT22;10399;50.754;3.366;2022-11-20T05:33:36;8.00;99.90
20481;DHT22;10399;50.754;3.366;2022-11-20T05:36:03;8.00;99.90
20481;DHT22;10399;50.754;3.366;2022-11-20T05:38:31;8.00;99.90
20481;DHT22;10399;50.754;3.366;2022-11-20T05:43:34;7.90;99.90
20481;DHT22;10399;50.754;3.366;2022-11-20T05:46:02;7.80;99.90
20481;DHT22;10399;50.754;3.366;2022-11-20T05:48:29;7.70;99.90
20481;DHT22;10399;50.754;3.366;2022-11-20T05:50:58;7.60;99.90
20481;DHT22;10399;50.754;3.366;2022-11-20T05:53:26;7.70;99.90
20481;DHT22;10399;50.754;3.366;2022-11-20T05:56:04;7.80;99.90
20481;DHT22;10399;50.754;3.366;2022-11-20T05:58:32;7.90;99.90
20481;DHT22;10399;50.754;3.366;2022-11-20T06:01:14;7.90;99.90
20481;DHT22;10399;50.754;3.366;2022-11-20T06:03:42;7.80;99.90
20481;DHT22;10399;50.754;3.366;2022-11-20T06:06:14;7.80;99.90
20481;DHT22;10399;50.754;3.366;2022-11-20T06:08:43;7.90;99.90
20481;DHT22;10399;50.754;3.366;2022-11-20T06:11:12;7.70;99.90
20481;DHT22;10399;50.754;3.366;2022-11-20T06:13:39;7.60;99.90
20481;DHT22;10399;50.754;3.366;2022-11-20T06:16:09;7.50;99.90
20481;DHT22;10399;50.754;3.366;2022-11-20T06:18:36;7.60;99.90
20481;DHT22;10399;50.754;3.366;2022-11-20T06:21:15;7.50;99.90
20481;DHT22;10399;50.754;3.366;2022-11-20T06:23:43;7.60;99.90
20481;DHT22;10399;50.754;3.366;2022-11-20T06:26:21;7.70;99.90
20481;DHT22;10399;50.754;3.366;2022-11-20T06:28:49;7.70;99.90
20481;DHT22;10399;50.754;3.366;2022-11-20T06:31:19;7.90;99.90
20481;DHT22;10399;50.754;3.366;2022-11-20T06:33:47;7.90;99.90
20481;DHT22;10399;50.754;3.366;2022-11-20T06:36:15;7.80;99.90
20481;DHT22;10399;50.754;3.366;2022-11-20T06:38:43;7.90;99.90
20481;DHT22;10399;50.754;3.366;2022-11-20T06:41:21;7.90;99.90
20481;DHT22;10399;50.754;3.366;2022-11-20T06:43:49;7.90;99.90
20481;DHT22;10399;50.754;3.366;2022-11-20T06:46:16;7.70;99.90
20481;DHT22;10399;50.754;3.366;2022-11-20T06:48:45;7.70;99.90
20481;DHT22;10399;50.754;3.366;2022-11-20T06:51:14;7.80;99.90
20481;DHT22;10399;50.754;3.366;2022-11-20T06:53:42;7.80;99.90
20481;DHT22;10399;50.754;3.366;2022-11-20T06:56:09;7.80;99.90
20481;DHT22;10399;50.754;3.366;2022-11-20T06:58:36;7.90;99.90
20481;DHT22;10399;50.754;3.366;2022-11-20T07:01:11;8.00;99.90
20481;DHT22;10399;50.754;3.366;2022-11-20T07:03:38;7.80;99.90
20481;DHT22;10399;50.754;3.366;2022-11-20T07:06:06;7.70;99.90
20481;DHT22;10399;50.754;3.366;2022-11-20T07:08:34;7.80;99.90
20481;DHT22;10399;50.754;3.366;2022-11-20T07:11:04;7.90;99.90
20481;DHT22;10399;50.754;3.366;2022-11-20T07:13:32;8.00;99.90
20481;DHT22;10399;50.754;3.366;2022-11-20T07:16:00;8.00;99.90
20481;DHT22;10399;50.754;3.366;2022-11-20T07:18:28;8.10;99.90
20481;DHT22;10399;50.754;3.366;2022-11-20T07:20:55;8.10;99.90
20481;DHT22;10399;50.754;3.366;2022-11-20T07:23:22;8.10;99.90
20481;DHT22;10399;50.754;3.366;2022-11-20T07:25:49;7.90;99.90
20481;DHT22;10399;50.754;3.366;2022-11-20T07:28:16;8.00;99.90
20481;DHT22;10399;50.754;3.366;2022-11-20T07:30:52;8.00;99.90
20481;DHT22;10399;50.754;3.366;2022-11-20T07:33:20;8.10;99.90
20481;DHT22;10399;50.754;3.366;2022-11-20T07:35:47;8.20;99.90
20481;DHT22;10399;50.754;3.366;2022-11-20T07:38:14;8.20;99.90
20481;DHT22;10399;50.754;3.366;2022-11-20T07:40:40;8.40;99.90
20481;DHT22;10399;50.754;3.366;2022-11-20T07:43:08;8.50;99.90
20481;DHT22;10399;50.754;3.366;2022-11-20T07:45:34;8.30;99.90
20481;DHT22;10399;50.754;3.366;2022-11-20T07:48:02;8.20;99.90
20481;DHT22;10399;50.754;3.366;2022-11-20T07:50:29;8.40;99.90
20481;DHT22;10399;50.754;3.366;2022-11-20T07:53:02;8.20;99.90
20481;DHT22;10399;50.754;3.366;2022-11-20T07:55:30;8.30;99.90
20481;DHT22;10399;50.754;3.366;2022-11-20T07:57:57;8.40;99.90
20481;DHT22;10399;50.754;3.366;2022-11-20T08:00:26;8.40;99.90
20481;DHT22;10399;50.754;3.366;2022-11-20T08:02:54;8.60;99.90
20481;DHT22;10399;50.754;3.366;2022-11-20T08:05:22;8.70;99.90
20481;DHT22;10399;50.754;3.366;2022-11-20T08:07:49;8.60;99.90
20481;DHT22;10399;50.754;3.366;2022-11-20T08:10:16;8.70;99.90
20481;DHT22;10399;50.754;3.366;2022-11-20T08:12:48;8.60;99.90
20481;DHT22;10399;50.754;3.366;2022-11-20T08:15:35;8.50;99.90
20481;DHT22;10399;50.754;3.366;2022-11-20T08:20:50;8.70;99.90
20481;DHT22;10399;50.754;3.366;2022-11-20T08:23:17;8.80;99.90
20481;DHT22;10399;50.754;3.366;2022-11-20T08:25:49;8.70;99.90
20481;DHT22;10399;50.754;3.366;2022-11-20T08:28:17;8.70;99.90
20481;DHT22;10399;50.754;3.366;2022-11-20T08:30:48;8.80;99.90
20481;DHT22;10399;50.754;3.366;2022-11-20T08:33:17;8.80;99.90
20481;DHT22;10399;50.754;3.366;2022-11-20T08:35:47;8.90;99.90
20481;DHT22;10399;50.754;3.366;2022-11-20T08:38:14;8.80;99.90
20481;DHT22;10399;50.754;3.366;2022-11-20T08:40:41;8.90;99.90
20481;DHT22;10399;50.754;3.366;2022-11-20T08:43:28;9.00;99.90
20481;DHT22;10399;50.754;3.366;2022-11-20T08:45:56;9.00;99.90
20481;DHT22;10399;50.754;3.366;2022-11-20T08:48:23;9.10;99.90
20481;DHT22;10399;50.754;3.366;2022-11-20T08:50:50;9.10;99.90
20481;DHT22;10399;50.754;3.366;2022-11-20T08:53:18;9.00;99.90
20481;DHT22;10399;50.754;3.366;2022-11-20T08:55:46;9.00;99.90
20481;DHT22;10399;50.754;3.366;2022-11-20T08:58:13;9.00;99.90
20481;DHT22;10399;50.754;3.366;2022-11-20T09:00:40;8.90;99.90
20481;DHT22;10399;50.754;3.366;2022-11-20T09:03:07;9.10;99.90
20481;DHT22;10399;50.754;3.366;2022-11-20T09:05:34;9.10;99.90
20481;DHT22;10399;50.754;3.366;2022-11-20T09:08:01;9.20;99.90
20481;DHT22;10399;50.754;3.366;2022-11-20T09:10:28;9.30;99.90
20481;DHT22;10399;50.754;3.366;2022-11-20T09:12:55;9.40;99.90
20481;DHT22;10399;50.754;3.366;2022-11-20T09:15:23;9.50;99.90
20481;DHT22;10399;50.754;3.366;2022-11-20T09:20:19;9.60;99.90
20481;DHT22;10399;50.754;3.366;2022-11-20T09:22:46;9.70;99.90
20481;DHT22;10399;50.754;3.366;2022-11-20T09:25:13;9.50;99.90
20481;DHT22;10399;50.754;3.366;2022-11-20T09:27:40;9.40;99.90
20481;DHT22;10399;50.754;3.366;2022-11-20T09:30:10;9.30;99.90
20481;DHT22;10399;50.754;3.366;2022-11-20T09:32:39;9.40;99.90
20481;DHT22;10399;50.754;3.366;2022-11-20T09:35:06;9.60;99.90
20481;DHT22;10399;50.754;3.366;2022-11-20T09:37:34;9.60;99.90
20481;DHT22;10399;50.754;3.366;2022-11-20T09:40:01;9.60;99.90
20481;DHT22;10399;50.754;3.366;2022-11-20T09:42:47;9.80;99.90
20481;DHT22;10399;50.754;3.366;2022-11-20T09:45:30;9.70;99.90
20481;DHT22;10399;50.754;3.366;2022-11-20T09:56:04;9.70;99.90
20481;DHT22;10399;50.754;3.366;2022-11-20T10:01:30;9.60;99.90
20481;DHT22;10399;50.754;3.366;2022-11-20T10:04:19;9.60;99.90
20481;DHT22;10399;50.754;3.366;2022-11-20T10:09:53;9.60;99.90
20481;DHT22;10399;50.754;3.366;2022-11-20T10:15:15;9.60;99.90
20481;DHT22;10399;50.754;3.366;2022-11-20T10:20:51;9.60;99.90
20481;DHT22;10399;50.754;3.366;2022-11-20T10:27:13;9.70;99.90
20481;DHT22;10399;50.754;3.366;2022-11-20T10:29:34;9.60;99.90
20481;DHT22;10399;50.754;3.366;2022-11-20T10:32:09;9.70;99.90
20481;DHT22;10399;50.754;3.366;2022-11-20T10:34:53;9.70;99.90
20481;DHT22;10399;50.754;3.366;2022-11-20T10:37:29;9.70;99.90
20481;DHT22;10399;50.754;3.366;2022-11-20T10:45:47;9.70;99.90
20481;DHT22;10399;50.754;3.366;2022-11-20T10:48:23;9.60;99.90
20481;DHT22;10399;50.754;3.366;2022-11-20T10:56:21;9.30;99.90
20481;DHT22;10399;50.754;3.366;2022-11-20T11:01:57;9.30;99.90
20481;DHT22;10399;50.754;3.366;2022-11-20T11:04:46;9.40;99.90
20481;DHT22;10399;50.754;3.366;2022-11-20T11:07:21;9.30;99.90
20481;DHT22;10399;50.754;3.366;2022-11-20T11:09:52;9.50;99.90
20481;DHT22;10399;50.754;3.366;2022-11-20T11:12:22;9.50;99.90
20481;DHT22;10399;50.754;3.366;2022-11-20T11:14:56;9.50;99.90
20481;DHT22;10399;50.754;3.366;2022-11-20T11:17:24;9.40;99.90
20481;DHT22;10399;50.754;3.366;2022-11-20T11:22:34;9.40;99.90
20481;DHT22;10399;50.754;3.366;2022-11-20T11:25:01;9.20;99.90
20481;DHT22;10399;50.754;3.366;2022-11-20T11:27:28;9.20;99.90
20481;DHT22;10399;50.754;3.366;2022-11-20T11:30:22;9.10;99.90
20481;DHT22;10399;50.754;3.366;2022-11-20T11:33:01;9.20;99.90
20481;DHT22;10399;50.754;3.366;2022-11-20T11:35:29;9.20;99.90
20481;DHT22;10399;50.754;3.366;2022-11-20T11:38:04;9.40;99.90
20481;DHT22;10399;50.754;3.366;2022-11-20T11:40:33;9.40;99.90
20481;DHT22;10399;50.754;3.366;2022-11-20T11:43:04;9.40;99.90
20481;DHT22;10399;50.754;3.366;2022-11-20T11:45:32;9.30;99.90
20481;DHT22;10399;50.754;3.366;2022-11-20T11:48:03;9.40;99.90
20481;DHT22;10399;50.754;3.366;2022-11-20T11:50:31;9.30;99.90
20481;DHT22;10399;50.754;3.366;2022-11-20T11:53:18;9.30;99.90
20481;DHT22;10399;50.754;3.366;2022-11-20T11:55:47;9.20;99.90
20481;DHT22;10399;50.754;3.366;2022-11-20T12:01:33;9.20;99.90
20481;DHT22;10399;50.754;3.366;2022-11-20T12:04:05;9.10;99.90
20481;DHT22;10399;50.754;3.366;2022-11-20T12:06:39;9.10;99.90
20481;DHT22;10399;50.754;3.366;2022-11-20T12:09:11;9.10;99.90
20481;DHT22;10399;50.754;3.366;2022-11-20T12:11:59;9.20;99.90
20481;DHT22;10399;50.754;3.366;2022-11-20T12:14:37;9.20;99.90
20481;DHT22;10399;50.754;3.366;2022-11-20T12:17:05;9.10;99.90
20481;DHT22;10399;50.754;3.366;2022-11-20T12:19:34;9.10;99.90
20481;DHT22;10399;50.754;3.366;2022-11-20T12:25:32;9.20;99.90
20481;DHT22;10399;50.754;3.366;2022-11-20T12:28:03;9.10;99.90
20481;DHT22;10399;50.754;3.366;2022-11-20T12:30:34;9.20;99.90
20481;DHT22;10399;50.754;3.366;2022-11-20T12:36:19;9.20;99.90
20481;DHT22;10399;50.754;3.366;2022-11-20T12:39:51;9.20;99.90
20481;DHT22;10399;50.754;3.366;2022-11-20T12:42:07;9.10;99.90
20481;DHT22;10399;50.754;3.366;2022-11-20T12:48:18;9.20;99.90
20481;DHT22;10399;50.754;3.366;2022-11-20T13:02:23;9.20;99.90
20481;DHT22;10399;50.754;3.366;2022-11-20T13:07:47;9.20;99.90
20481;DHT22;10399;50.754;3.366;2022-11-20T13:18:20;9.40;99.90
20481;DHT22;10399;50.754;3.366;2022-11-20T13:20:47;9.40;99.90
20481;DHT22;10399;50.754;3.366;2022-11-20T13:23:24;9.40;99.90
20481;DHT22;10399;50.754;3.366;2022-11-20T13:26:12;9.50;99.90
20481;DHT22;10399;50.754;3.366;2022-11-20T13:28:40;9.50;99.90
20481;DHT22;10399;50.754;3.366;2022-11-20T13:31:31;9.70;99.90
20481;DHT22;10399;50.754;3.366;2022-11-20T13:34:01;9.80;99.90
20481;DHT22;10399;50.754;3.366;2022-11-20T13:36:31;9.70;99.90
20481;DHT22;10399;50.754;3.366;2022-11-20T13:39:01;9.80;99.90
20481;DHT22;10399;50.754;3.366;2022-11-20T13:41:34;10.00;99.90
20481;DHT22;10399;50.754;3.366;2022-11-20T13:44:38;10.10;99.90
20481;DHT22;10399;50.754;3.366;2022-11-20T13:49:47;10.30;99.90
20481;DHT22;10399;50.754;3.366;2022-11-20T13:52:39;10.40;99.90
20481;DHT22;10399;50.754;3.366;2022-11-20T14:00:17;10.80;99.90
20481;DHT22;10399;50.754;3.366;2022-11-20T14:02:58;11.00;99.90
20481;DHT22;10399;50.754;3.366;2022-11-20T14:05:26;11.20;99.90
20481;DHT22;10399;50.754;3.366;2022-11-20T14:07:54;11.30;99.90
20481;DHT22;10399;50.754;3.366;2022-11-20T14:10:27;11.60;99.90
20481;DHT22;10399;50.754;3.366;2022-11-20T14:12:58;11.50;99.90
20481;DHT22;10399;50.754;3.366;2022-11-20T14:15:33;11.70;99.90
20481;DHT22;10399;50.754;3.366;2022-11-20T14:18:14;11.80;99.90
20481;DHT22;10399;50.754;3.366;2022-11-20T14:20:42;11.60;99.90
20481;DHT22;10399;50.754;3.366;2022-11-20T14:23:11;11.50;99.90
20481;DHT22;10399;50.754;3.366;2022-11-20T14:25:42;11.60;99.90
20481;DHT22;10399;50.754;3.366;2022-11-20T14:28:19;11.60;99.90
20481;DHT22;10399;50.754;3.366;2022-11-20T14:30:48;11.50;99.90
20481;DHT22;10399;50.754;3.366;2022-11-20T14:33:16;11.60;99.90
20481;DHT22;10399;50.754;3.366;2022-11-20T14:35:49;11.50;99.90
20481;DHT22;10399;50.754;3.366;2022-11-20T14:38:19;11.30;99.90
20481;DHT22;10399;50.754;3.366;2022-11-20T14:40:48;11.20;99.90
20481;DHT22;10399;50.754;3.366;2022-11-20T14:43:22;11.40;99.90
20481;DHT22;10399;50.754;3.366;2022-11-20T14:48:29;11.30;99.90
20481;DHT22;10399;50.754;3.366;2022-11-20T14:50:58;11.30;99.90
20481;DHT22;10399;50.754;3.366;2022-11-20T14:53:26;11.40;99.90
20481;DHT22;10399;50.754;3.366;2022-11-20T14:55:59;11.50;99.90
20481;DHT22;10399;50.754;3.366;2022-11-20T14:58:32;11.40;99.90
20481;DHT22;10399;50.754;3.366;2022-11-20T15:01:02;11.60;99.90
20481;DHT22;10399;50.754;3.366;2022-11-20T15:03:34;11.70;99.90
20481;DHT22;10399;50.754;3.366;2022-11-20T15:06:03;11.80;99.90
20481;DHT22;10399;50.754;3.366;2022-11-20T15:08:30;11.90;99.90
20481;DHT22;10399;50.754;3.366;2022-11-20T15:10:57;11.90;99.90
20481;DHT22;10399;50.754;3.366;2022-11-20T15:13:36;11.70;99.90
20481;DHT22;10399;50.754;3.366;2022-11-20T15:16:17;11.50;99.90
20481;DHT22;10399;50.754;3.366;2022-11-20T15:18:45;11.50;99.90
20481;DHT22;10399;50.754;3.366;2022-11-20T15:21:15;11.40;99.90
20481;DHT22;10399;50.754;3.366;2022-11-20T15:23:42;11.30;99.90
20481;DHT22;10399;50.754;3.366;2022-11-20T15:26:11;11.30;99.90
20481;DHT22;10399;50.754;3.366;2022-11-20T15:28:46;11.10;99.90
20481;DHT22;10399;50.754;3.366;2022-11-20T15:31:16;11.10;99.90
20481;DHT22;10399;50.754;3.366;2022-11-20T15:33:44;11.20;99.90
20481;DHT22;10399;50.754;3.366;2022-11-20T15:36:11;11.10;99.90
20481;DHT22;10399;50.754;3.366;2022-11-20T15:38:39;11.10;99.90
20481;DHT22;10399;50.754;3.366;2022-11-20T15:41:06;10.90;99.90
20481;DHT22;10399;50.754;3.366;2022-11-20T15:43:34;11.00;99.90
20481;DHT22;10399;50.754;3.366;2022-11-20T15:48:55;11.10;99.90
20481;DHT22;10399;50.754;3.366;2022-11-20T15:53:57;11.20;99.90
20481;DHT22;10399;50.754;3.366;2022-11-20T15:56:25;11.10;99.90
20481;DHT22;10399;50.754;3.366;2022-11-20T15:58:52;11.10;99.90
20481;DHT22;10399;50.754;3.366;2022-11-20T16:01:21;10.80;99.90
20481;DHT22;10399;50.754;3.366;2022-11-20T16:03:48;11.00;99.90
20481;DHT22;10399;50.754;3.366;2022-11-20T16:06:16;11.00;99.90
20481;DHT22;10399;50.754;3.366;2022-11-20T16:08:42;11.00;99.90
20481;DHT22;10399;50.754;3.366;2022-11-20T16:11:14;11.00;99.90
20481;DHT22;10399;50.754;3.366;2022-11-20T16:13:42;11.00;99.90
20481;DHT22;10399;50.754;3.366;2022-11-20T16:16:35;11.10;99.90
20481;DHT22;10399;50.754;3.366;2022-11-20T16:19:03;11.10;99.90
20481;DHT22;10399;50.754;3.366;2022-11-20T16:21:31;11.00;99.90
20481;DHT22;10399;50.754;3.366;2022-11-20T16:23:59;10.90;99.90
20481;DHT22;10399;50.754;3.366;2022-11-20T16:26:27;10.90;99.90
20481;DHT22;10399;50.754;3.366;2022-11-20T16:28:54;10.90;99.90
20481;DHT22;10399;50.754;3.366;2022-11-20T16:31:22;11.00;99.90
20481;DHT22;10399;50.754;3.366;2022-11-20T16:33:57;10.80;99.90
20481;DHT22;10399;50.754;3.366;2022-11-20T16:36:25;10.80;99.90
20481;DHT22;10399;50.754;3.366;2022-11-20T16:39:03;10.70;99.90
20481;DHT22;10399;50.754;3.366;2022-11-20T16:41:32;10.90;99.90
20481;DHT22;10399;50.754;3.366;2022-11-20T16:44:01;10.80;99.90
20481;DHT22;10399;50.754;3.366;2022-11-20T16:46:30;10.80;99.90
20481;DHT22;10399;50.754;3.366;2022-11-20T16:49:05;10.80;99.90
20481;DHT22;10399;50.754;3.366;2022-11-20T16:51:36;10.70;99.90
20481;DHT22;10399;50.754;3.366;2022-11-20T16:54:05;10.80;99.90
20481;DHT22;10399;50.754;3.366;2022-11-20T16:56:32;10.90;99.90
20481;DHT22;10399;50.754;3.366;2022-11-20T16:59:00;10.80;99.90
20481;DHT22;10399;50.754;3.366;2022-11-20T17:01:29;10.70;99.90
20481;DHT22;10399;50.754;3.366;2022-11-20T17:04:03;10.60;99.90
20481;DHT22;10399;50.754;3.366;2022-11-20T17:06:33;10.70;99.90
20481;DHT22;10399;50.754;3.366;2022-11-20T17:09:00;10.70;99.90
20481;DHT22;10399;50.754;3.366;2022-11-20T17:11:31;10.50;99.90
20481;DHT22;10399;50.754;3.366;2022-11-20T17:13:59;10.60;99.90
20481;DHT22;10399;50.754;3.366;2022-11-20T17:16:27;10.70;99.90
20481;DHT22;10399;50.754;3.366;2022-11-20T17:18:55;10.70;99.90
20481;DHT22;10399;50.754;3.366;2022-11-20T17:21:30;10.70;99.90
20481;DHT22;10399;50.754;3.366;2022-11-20T17:24:05;10.60;99.90
20481;DHT22;10399;50.754;3.366;2022-11-20T17:26:34;10.50;99.90
20481;DHT22;10399;50.754;3.366;2022-11-20T17:29:04;10.50;99.90
20481;DHT22;10399;50.754;3.366;2022-11-20T17:31:34;10.50;99.90
20481;DHT22;10399;50.754;3.366;2022-11-20T17:34:01;10.40;99.90
20481;DHT22;10399;50.754;3.366;2022-11-20T17:36:29;10.40;99.90
20481;DHT22;10399;50.754;3.366;2022-11-20T17:38:57;10.50;99.90
20481;DHT22;10399;50.754;3.366;2022-11-20T17:41:27;10.50;99.90
20481;DHT22;10399;50.754;3.366;2022-11-20T17:43:57;10.40;99.90
20481;DHT22;10399;50.754;3.366;2022-11-20T17:46:27;10.30;99.90
20481;DHT22;10399;50.754;3.366;2022-11-20T17:48:55;10.30;99.90
20481;DHT22;10399;50.754;3.366;2022-11-20T17:51:24;10.30;99.90
20481;DHT22;10399;50.754;3.366;2022-11-20T17:54:00;10.40;99.90